createdAt,value
2022-08-07T00:00:27.723Z,25.05
2022-08-07T00:02:50.961Z,25.23
2022-08-07T00:05:06.949Z,25.33
2022-08-07T00:07:20.154Z,25.24
2022-08-07T00:09:35.831Z,25.24
2022-08-07T00:11:55.494Z,25.34
2022-08-07T00:14:11.991Z,25.42
2022-08-07T00:16:28.157Z,25.50
2022-08-07T00:18:41.457Z,25.67
2022-08-07T00:20:56.851Z,25.77
2022-08-07T00:23:11.367Z,25.79
2022-08-07T00:25:26.159Z,25.86
2022-08-07T00:27:52.913Z,25.89
2022-08-07T00:30:07.304Z,25.80
2022-08-07T00:32:39.891Z,25.61
2022-08-07T00:34:52.923Z,25.54
2022-08-07T00:37:06.344Z,25.47
2022-08-07T00:39:21.565Z,25.49
2022-08-07T00:41:45.345Z,25.52
2022-08-07T00:44:07.162Z,25.45
2022-08-07T00:46:21.196Z,25.41
2022-08-07T00:48:35.703Z,25.38
2022-08-07T00:50:55.429Z,25.34
2022-08-07T00:53:09.276Z,25.40
2022-08-07T00:55:25.475Z,25.52
2022-08-07T00:57:57.890Z,25.57
2022-08-07T01:00:12.785Z,25.56
2022-08-07T01:02:28.584Z,25.50
2022-08-07T01:04:43.933Z,25.51
2022-08-07T01:06:57.819Z,25.52
2022-08-07T01:09:11.216Z,25.50
2022-08-07T01:12:09.225Z,25.53
2022-08-07T01:14:17.512Z,25.46
2022-08-07T01:16:34.793Z,25.37
2022-08-07T01:18:49.351Z,25.19
2022-08-07T01:21:24.392Z,25.09
2022-08-07T01:23:46.453Z,25.05
2022-08-07T01:26:00.905Z,25.02
2022-08-07T01:28:14.542Z,24.87
2022-08-07T01:30:30.376Z,24.82
2022-08-07T01:32:43.639Z,24.76
2022-08-07T01:34:57.362Z,24.68
2022-08-07T01:37:12.516Z,24.70
2022-08-07T01:39:41.061Z,24.71
2022-08-07T01:42:38.231Z,24.73
2022-08-07T01:44:40.897Z,24.69
2022-08-07T01:46:55.733Z,24.67
2022-08-07T01:49:11.283Z,24.71
2022-08-07T01:52:02.206Z,24.74
2022-08-07T01:54:19.218Z,24.78
2022-08-07T01:56:51.913Z,24.77
2022-08-07T01:59:15.692Z,24.79
2022-08-07T02:02:02.135Z,24.75
2022-08-07T02:04:15.064Z,24.67
2022-08-07T02:06:36.022Z,24.63
2022-08-07T02:08:54.196Z,24.60
2022-08-07T02:11:57.638Z,24.60
2022-08-07T02:13:58.117Z,24.61
2022-08-07T02:16:15.220Z,24.60
2022-08-07T02:18:30.676Z,24.59
2022-08-07T02:20:48.723Z,24.59
2022-08-07T02:23:11.611Z,24.57
2022-08-07T02:26:10.589Z,24.57
2022-08-07T02:28:02.356Z,24.53
2022-08-07T02:30:21.201Z,24.49
2022-08-07T02:32:39.365Z,24.44
2022-08-07T02:34:55.655Z,24.38
2022-08-07T02:37:13.428Z,24.33
2022-08-07T02:39:43.720Z,24.28
2022-08-07T02:42:10.117Z,24.16
2022-08-07T02:44:34.624Z,24.09
2022-08-07T02:46:53.912Z,24.04
2022-08-07T02:49:08.000Z,24.01
2022-08-07T02:51:42.144Z,24.01
2022-08-07T02:53:59.543Z,23.96
2022-08-07T02:56:20.944Z,23.86
2022-08-07T02:58:35.540Z,23.82
2022-08-07T03:00:52.844Z,23.75
2022-08-07T03:03:08.669Z,23.68
2022-08-07T03:05:35.985Z,23.63
2022-08-07T03:08:05.422Z,23.56
2022-08-07T03:10:23.459Z,23.46
2022-08-07T03:12:38.816Z,23.38
2022-08-07T03:14:57.474Z,23.30
2022-08-07T03:17:16.249Z,23.22
2022-08-07T03:19:36.887Z,23.12
2022-08-07T03:21:53.911Z,23.00
2022-08-07T03:24:20.820Z,22.92
2022-08-07T03:26:50.894Z,22.83
2022-08-07T03:29:14.715Z,22.73
2022-08-07T03:31:43.288Z,22.65
2022-08-07T03:34:04.629Z,22.55
2022-08-07T03:36:21.628Z,22.46
2022-08-07T03:38:41.153Z,22.35
2022-08-07T03:40:57.250Z,22.26
2022-08-07T03:43:14.453Z,22.15
2022-08-07T03:45:39.753Z,22.04
2022-08-07T03:47:59.816Z,21.96
2022-08-07T03:50:13.581Z,21.89
2022-08-07T03:52:29.007Z,21.83
2022-08-07T03:54:54.915Z,21.77
2022-08-07T03:57:11.459Z,21.67
2022-08-07T03:59:46.618Z,21.53
2022-08-07T04:02:17.051Z,21.40
2022-08-07T04:04:32.850Z,21.31
2022-08-07T04:06:50.918Z,21.24
2022-08-07T04:09:08.418Z,21.15
2022-08-07T04:12:26.885Z,21.05
2022-08-07T04:14:33.269Z,20.99
2022-08-07T04:16:37.750Z,20.89
2022-08-07T04:19:01.290Z,20.79
2022-08-07T04:21:17.751Z,20.72
2022-08-07T04:23:43.947Z,20.65
2022-08-07T04:26:04.613Z,20.57
2022-08-07T04:28:18.468Z,20.51
2022-08-07T04:30:43.492Z,20.45
2022-08-07T04:33:15.640Z,20.38
2022-08-07T04:35:35.339Z,20.33
2022-08-07T04:38:06.891Z,20.28
2022-08-07T04:40:21.435Z,20.21
2022-08-07T04:42:43.662Z,20.12
2022-08-07T04:45:07.813Z,20.05
2022-08-07T04:48:00.544Z,19.97
2022-08-07T04:50:11.494Z,19.90
2022-08-07T04:52:34.430Z,19.83
2022-08-07T04:54:55.904Z,19.77
2022-08-07T04:58:09.995Z,19.73
2022-08-07T05:00:10.983Z,19.68
2022-08-07T05:02:31.749Z,19.64
2022-08-07T05:04:50.579Z,19.62
2022-08-07T05:07:19.759Z,19.60
2022-08-07T05:09:45.538Z,19.56
2022-08-07T05:12:04.717Z,19.52
2022-08-07T05:14:53.901Z,19.51
2022-08-07T05:17:01.121Z,19.47
2022-08-07T05:19:25.679Z,19.41
2022-08-07T05:22:00.247Z,19.36
2022-08-07T05:24:20.499Z,19.32
2022-08-07T05:26:40.197Z,19.26
2022-08-07T05:28:56.365Z,19.21
2022-08-07T05:31:14.521Z,19.13
2022-08-07T05:33:31.767Z,19.07
2022-08-07T05:35:50.692Z,19.00
2022-08-07T05:38:08.716Z,18.93
2022-08-07T05:40:24.298Z,18.88
2022-08-07T05:42:42.280Z,18.84
2022-08-07T05:45:26.024Z,18.77
2022-08-07T05:48:01.676Z,18.72
2022-08-07T05:50:24.665Z,18.67
2022-08-07T05:52:38.244Z,18.61
2022-08-07T05:54:55.524Z,18.55
2022-08-07T05:57:11.723Z,18.48
2022-08-07T05:59:27.439Z,18.31
2022-08-07T06:01:48.622Z,18.11
2022-08-07T06:04:03.865Z,17.96
2022-08-07T06:06:22.853Z,17.87
2022-08-07T06:08:44.581Z,17.79
2022-08-07T06:11:00.331Z,17.73
2022-08-07T06:13:17.321Z,17.67
2022-08-07T06:15:42.202Z,17.62
2022-08-07T06:17:59.879Z,17.58
2022-08-07T06:20:25.669Z,17.52
2022-08-07T06:23:02.153Z,17.47
2022-08-07T06:25:26.445Z,17.44
2022-08-07T06:28:00.031Z,17.42
2022-08-07T06:30:32.335Z,17.39
2022-08-07T06:32:52.024Z,17.38
2022-08-07T06:35:17.637Z,17.37
2022-08-07T06:37:44.443Z,17.36
2022-08-07T06:40:17.187Z,17.29
2022-08-07T06:42:38.474Z,17.18
2022-08-07T06:45:01.107Z,17.12
2022-08-07T06:47:15.501Z,17.09
2022-08-07T06:49:29.414Z,17.05
2022-08-07T06:51:49.610Z,17.02
2022-08-07T06:55:28.954Z,17.00
2022-08-07T06:56:49.360Z,17.00
2022-08-07T07:00:13.790Z,16.99
2022-08-07T07:01:48.815Z,16.99
2022-08-07T07:04:27.929Z,16.98
2022-08-07T07:06:39.421Z,16.98
2022-08-07T07:09:30.907Z,16.96
2022-08-07T07:12:08.849Z,16.95
2022-08-07T07:14:22.399Z,16.91
2022-08-07T07:16:50.022Z,16.86
2022-08-07T07:19:54.458Z,16.82
2022-08-07T07:22:04.800Z,16.81
2022-08-07T07:24:19.155Z,16.79
2022-08-07T07:26:37.804Z,16.78
2022-08-07T07:29:40.688Z,16.77
2022-08-07T07:31:44.130Z,16.73
2022-08-07T07:34:03.099Z,16.71
2022-08-07T07:36:18.005Z,16.69
2022-08-07T07:38:32.370Z,16.68
2022-08-07T07:40:48.651Z,16.67
2022-08-07T07:43:15.245Z,16.65
2022-08-07T07:46:36.935Z,16.62
2022-08-07T07:48:08.770Z,16.57
2022-08-07T07:50:33.019Z,16.54
2022-08-07T07:52:52.421Z,16.52
2022-08-07T07:55:06.773Z,16.50
2022-08-07T07:57:50.410Z,16.48
2022-08-07T07:59:58.233Z,16.45
2022-08-07T08:02:22.660Z,16.40
2022-08-07T08:04:50.445Z,16.34
2022-08-07T08:07:07.719Z,16.31
2022-08-07T08:09:23.246Z,16.28
2022-08-07T08:11:59.719Z,16.23
2022-08-07T08:14:10.131Z,16.17
2022-08-07T08:16:30.115Z,16.13
2022-08-07T08:18:45.125Z,16.11
2022-08-07T08:21:05.256Z,16.09
2022-08-07T08:23:38.726Z,16.07
2022-08-07T08:26:11.280Z,16.03
2022-08-07T08:28:38.496Z,16.00
2022-08-07T08:30:55.586Z,15.97
2022-08-07T08:33:16.239Z,15.95
2022-08-07T08:35:39.306Z,15.94
2022-08-07T08:38:04.658Z,15.94
2022-08-07T08:40:28.593Z,15.91
2022-08-07T08:42:46.783Z,15.86
2022-08-07T08:45:13.801Z,15.84
2022-08-07T08:47:47.390Z,15.82
2022-08-07T08:50:18.980Z,15.79
2022-08-07T08:52:54.965Z,15.75
2022-08-07T08:55:20.826Z,15.73
2022-08-07T08:57:55.712Z,15.70
2022-08-07T09:00:13.173Z,15.68
2022-08-07T09:02:41.905Z,15.65
2022-08-07T09:05:01.621Z,15.59
2022-08-07T09:07:23.218Z,15.55
2022-08-07T09:09:56.487Z,15.51
2022-08-07T09:12:30.955Z,15.51
2022-08-07T09:14:58.619Z,15.49
2022-08-07T09:17:25.825Z,15.49
2022-08-07T09:20:01.001Z,15.51
2022-08-07T09:24:33.474Z,15.60
2022-08-07T09:25:17.347Z,15.69
2022-08-07T09:27:59.425Z,15.73
2022-08-07T09:30:20.727Z,15.74
2022-08-07T09:32:57.329Z,15.74
2022-08-07T09:36:00.957Z,15.71
2022-08-07T09:37:55.405Z,15.70
2022-08-07T09:40:25.599Z,15.68
2022-08-07T09:42:50.440Z,15.64
2022-08-07T09:47:24.493Z,15.63
2022-08-07T09:48:02.447Z,15.61
2022-08-07T09:50:26.615Z,15.58
2022-08-07T09:52:51.759Z,15.56
2022-08-07T09:55:29.899Z,15.55
2022-08-07T09:58:14.577Z,15.52
2022-08-07T10:00:31.944Z,15.49
2022-08-07T10:04:04.975Z,15.47
2022-08-07T10:06:56.858Z,15.46
2022-08-07T10:09:42.755Z,15.43
2022-08-07T10:12:19.700Z,15.41
2022-08-07T10:14:58.779Z,15.39
2022-08-07T10:17:19.367Z,15.35
2022-08-07T10:19:56.326Z,15.31
2022-08-07T10:22:33.574Z,15.27
2022-08-07T10:25:02.700Z,15.21
2022-08-07T10:27:47.034Z,15.17
2022-08-07T10:30:16.578Z,15.14
2022-08-07T10:32:59.789Z,15.10
2022-08-07T10:35:25.953Z,15.06
2022-08-07T10:38:09.896Z,15.03
2022-08-07T10:40:30.107Z,15.03
2022-08-07T10:42:50.244Z,15.03
2022-08-07T10:45:13.249Z,15.05
2022-08-07T10:47:51.551Z,15.08
2022-08-07T10:50:15.246Z,15.09
2022-08-07T10:52:37.221Z,15.10
2022-08-07T10:55:01.502Z,15.11
2022-08-07T10:57:34.781Z,15.11
2022-08-07T11:00:08.894Z,15.10
2022-08-07T11:02:34.300Z,15.10
2022-08-07T11:05:10.768Z,15.10
2022-08-07T11:07:59.045Z,15.11
2022-08-07T11:10:10.093Z,15.13
2022-08-07T11:12:31.721Z,15.14
2022-08-07T11:14:59.728Z,15.17
2022-08-07T11:17:23.293Z,15.19
2022-08-07T11:19:59.362Z,15.20
2022-08-07T11:22:36.097Z,15.22
2022-08-07T11:25:03.311Z,15.23
2022-08-07T11:28:01.340Z,15.24
2022-08-07T11:30:18.851Z,15.27
2022-08-07T11:32:42.482Z,15.29
2022-08-07T11:35:00.726Z,15.32
2022-08-07T11:37:38.170Z,15.33
2022-08-07T11:40:03.910Z,15.34
2022-08-07T11:42:29.629Z,15.29
2022-08-07T11:44:57.631Z,15.23
2022-08-07T11:47:26.161Z,15.18
2022-08-07T11:50:31.072Z,15.13
2022-08-07T11:53:06.510Z,15.10
2022-08-07T11:56:24.956Z,15.08
2022-08-07T11:58:16.098Z,15.07
2022-08-07T12:00:38.018Z,15.08
2022-08-07T12:03:44.833Z,15.09
2022-08-07T12:06:01.179Z,15.09
2022-08-07T12:08:40.971Z,15.07
2022-08-07T12:11:08.482Z,15.05
2022-08-07T12:13:44.928Z,15.00
2022-08-07T12:16:09.136Z,14.96
2022-08-07T12:18:31.308Z,14.93
2022-08-07T12:20:51.781Z,14.90
2022-08-07T12:24:06.153Z,14.87
2022-08-07T12:26:23.574Z,14.83
2022-08-07T12:28:49.882Z,14.81
2022-08-07T12:31:17.242Z,14.80
2022-08-07T12:34:01.471Z,14.78
2022-08-07T12:36:12.642Z,14.76
2022-08-07T12:38:36.776Z,14.76
2022-08-07T12:40:57.089Z,14.73
2022-08-07T12:44:03.151Z,14.72
2022-08-07T12:45:56.338Z,14.71
2022-08-07T12:48:27.904Z,14.69
2022-08-07T12:50:57.071Z,14.69
2022-08-07T12:53:19.126Z,14.67
2022-08-07T12:55:41.351Z,14.63
2022-08-07T12:58:15.449Z,14.62
2022-08-07T13:00:49.698Z,14.61
2022-08-07T13:03:54.775Z,14.57
2022-08-07T13:06:27.261Z,14.54
2022-08-07T13:08:59.850Z,14.52
2022-08-07T13:11:28.861Z,14.49
2022-08-07T13:13:55.178Z,14.46
2022-08-07T13:16:19.719Z,14.44
2022-08-07T13:18:44.593Z,14.43
2022-08-07T13:21:10.795Z,14.41
2022-08-07T13:24:00.823Z,14.40
2022-08-07T13:26:15.918Z,14.39
2022-08-07T13:28:39.021Z,14.38
2022-08-07T13:31:01.680Z,14.38
2022-08-07T13:34:29.916Z,14.36
2022-08-07T13:36:09.188Z,14.35
2022-08-07T13:38:38.590Z,14.34
2022-08-07T13:41:01.121Z,14.33
2022-08-07T13:43:17.842Z,14.32
2022-08-07T13:46:11.182Z,14.33
2022-08-07T13:48:27.714Z,14.33
2022-08-07T13:51:02.044Z,14.34
2022-08-07T13:53:23.609Z,14.36
2022-08-07T13:55:39.079Z,14.37
2022-08-07T13:58:36.979Z,14.39
2022-08-07T14:00:56.225Z,14.44
2022-08-07T14:03:10.906Z,14.45
2022-08-07T14:05:37.567Z,14.48
2022-08-07T14:07:59.403Z,14.50
2022-08-07T14:10:24.754Z,14.53
2022-08-07T14:12:53.960Z,14.56
2022-08-07T14:15:12.685Z,14.59
2022-08-07T14:17:51.624Z,14.60
2022-08-07T14:20:40.550Z,14.64
2022-08-07T14:22:39.544Z,14.66
2022-08-07T14:24:57.974Z,14.70
2022-08-07T14:28:11.750Z,14.74
2022-08-07T14:30:05.217Z,14.80
2022-08-07T14:32:25.093Z,14.89
2022-08-07T14:34:45.612Z,15.01
2022-08-07T14:37:02.022Z,15.14
2022-08-07T14:40:15.804Z,15.27
2022-08-07T14:42:19.698Z,15.46
2022-08-07T14:44:30.148Z,15.63
2022-08-07T14:46:52.014Z,15.81
2022-08-07T14:49:58.015Z,16.01
2022-08-07T14:52:03.709Z,16.18
2022-08-07T14:54:33.063Z,16.35
2022-08-07T14:56:51.793Z,16.52
2022-08-07T15:01:51.297Z,16.83
2022-08-07T15:04:08.818Z,16.99
2022-08-07T15:06:29.469Z,17.13
2022-08-07T15:08:52.880Z,17.26
2022-08-07T15:11:14.947Z,17.36
2022-08-07T15:13:35.807Z,17.46
2022-08-07T15:15:54.019Z,17.50
2022-08-07T15:18:14.332Z,17.53
2022-08-07T15:20:55.013Z,17.60
2022-08-07T15:23:20.486Z,17.67
2022-08-07T15:25:42.839Z,17.72
2022-08-07T15:28:30.729Z,17.77
2022-08-07T15:31:04.819Z,17.81
2022-08-07T15:33:19.672Z,17.83
2022-08-07T15:38:30.057Z,17.86
2022-08-07T15:40:48.898Z,17.85
2022-08-07T15:43:53.214Z,17.86
2022-08-07T15:49:03.503Z,17.85
2022-08-07T15:51:18.188Z,17.83
2022-08-07T15:53:51.955Z,17.84
2022-08-07T15:56:11.026Z,17.87
2022-08-07T15:58:32.606Z,17.94
2022-08-07T16:00:46.370Z,17.97
2022-08-07T16:03:01.283Z,18.01
2022-08-07T16:05:23.124Z,18.05
2022-08-07T16:08:32.160Z,18.04
2022-08-07T16:10:26.146Z,18.05
2022-08-07T16:13:01.125Z,18.03
2022-08-07T16:15:56.398Z,18.02
2022-08-07T16:18:49.347Z,18.08
2022-08-07T16:22:03.146Z,18.12
2022-08-07T16:23:55.061Z,18.13
2022-08-07T16:26:30.965Z,18.10
2022-08-07T16:30:07.246Z,18.14
2022-08-07T16:31:50.114Z,18.17
2022-08-07T16:34:23.683Z,18.19
2022-08-07T16:37:02.784Z,18.22
2022-08-07T16:39:48.653Z,18.28
2022-08-07T16:42:36.709Z,18.29
2022-08-07T16:45:15.427Z,18.33
2022-08-07T16:48:13.644Z,18.42
2022-08-07T16:51:20.601Z,18.51
2022-08-07T16:53:55.638Z,18.55
2022-08-07T16:56:29.578Z,18.60
2022-08-07T16:59:10.565Z,18.58
2022-08-07T17:01:41.069Z,18.58
2022-08-07T17:04:07.737Z,18.55
2022-08-07T17:06:44.768Z,18.53
2022-08-07T17:09:09.646Z,18.58
2022-08-07T17:12:04.757Z,18.64
2022-08-07T17:14:18.513Z,18.70
2022-08-07T17:16:43.669Z,18.77
2022-08-07T17:19:16.480Z,18.80
2022-08-07T17:21:51.378Z,18.77
2022-08-07T17:24:23.645Z,18.75
2022-08-07T17:26:51.348Z,18.76
2022-08-07T17:30:12.658Z,18.83
2022-08-07T17:32:02.871Z,18.95
2022-08-07T17:34:34.700Z,19.04
2022-08-07T17:37:08.958Z,19.15
2022-08-07T17:39:57.769Z,19.24
2022-08-07T17:42:14.039Z,19.35
2022-08-07T17:44:43.920Z,19.41
2022-08-07T17:47:08.440Z,19.50
2022-08-07T17:49:30.066Z,19.61
2022-08-07T17:52:00.472Z,19.71
2022-08-07T17:54:40.212Z,19.76
2022-08-07T17:57:02.896Z,19.86
2022-08-07T17:59:37.707Z,19.91
2022-08-07T18:01:56.582Z,19.96
2022-08-07T18:04:30.894Z,19.98
2022-08-07T18:07:19.403Z,20.01
2022-08-07T18:10:04.287Z,20.09
2022-08-07T18:12:28.688Z,20.08
2022-08-07T18:14:49.348Z,20.07
2022-08-07T18:17:10.789Z,20.10
2022-08-07T18:21:11.507Z,20.16
2022-08-07T18:22:15.105Z,20.16
2022-08-07T18:24:35.616Z,20.22
2022-08-07T18:27:18.026Z,20.24
2022-08-07T18:30:05.929Z,20.23
2022-08-07T18:32:38.184Z,20.32
2022-08-07T18:35:15.811Z,20.45
2022-08-07T18:38:58.483Z,20.56
2022-08-07T18:40:42.325Z,20.60
2022-08-07T18:43:09.175Z,20.63
2022-08-07T18:45:43.375Z,20.62
2022-08-07T18:50:04.712Z,20.58
2022-08-07T18:51:08.293Z,20.62
2022-08-07T18:53:39.146Z,20.66
2022-08-07T18:56:06.182Z,20.70
2022-08-07T18:58:41.354Z,20.76
2022-08-07T19:01:04.832Z,20.85
2022-08-07T19:03:36.103Z,20.93
2022-08-07T19:06:02.349Z,20.93
2022-08-07T19:08:28.863Z,20.94
2022-08-07T19:11:35.632Z,20.95
2022-08-07T19:13:52.005Z,20.85
2022-08-07T19:16:43.769Z,20.79
2022-08-07T19:18:53.067Z,20.74
2022-08-07T19:21:47.509Z,20.74
2022-08-07T19:23:57.964Z,20.70
2022-08-07T19:26:22.074Z,20.77
2022-08-07T19:30:54.691Z,20.81
2022-08-07T19:31:42.774Z,20.87
2022-08-07T19:33:58.357Z,20.98
2022-08-07T19:36:15.021Z,21.04
2022-08-07T19:38:52.543Z,21.04
2022-08-07T19:41:07.070Z,21.00
2022-08-07T19:43:50.171Z,20.93
2022-08-07T19:46:09.642Z,20.94
2022-08-07T19:48:28.916Z,20.93
2022-08-07T19:50:48.715Z,20.93
2022-08-07T19:54:34.789Z,20.90
2022-08-07T19:55:57.615Z,20.90
2022-08-07T19:58:15.266Z,20.90
2022-08-07T20:00:34.519Z,20.91
2022-08-07T20:02:52.275Z,20.87
2022-08-07T20:05:11.196Z,20.87
2022-08-07T20:07:45.904Z,20.86
2022-08-07T20:10:36.282Z,20.84
2022-08-07T20:12:39.294Z,20.89
2022-08-07T20:14:58.499Z,20.94
2022-08-07T20:17:14.319Z,21.00
2022-08-07T20:19:49.440Z,21.12
2022-08-07T20:22:05.900Z,21.23
2022-08-07T20:24:28.461Z,21.32
2022-08-07T20:26:49.964Z,21.46
2022-08-07T20:29:10.649Z,21.60
2022-08-07T20:31:32.632Z,21.77
2022-08-07T20:33:50.990Z,21.88
2022-08-07T20:36:11.783Z,21.96
2022-08-07T20:38:32.128Z,22.03
2022-08-07T20:40:51.435Z,22.08
2022-08-07T20:43:14.715Z,22.09
2022-08-07T20:46:28.619Z,21.95
2022-08-07T20:48:09.780Z,21.86
2022-08-07T20:50:43.099Z,21.74
2022-08-07T20:52:56.170Z,21.73
2022-08-07T20:55:10.564Z,21.75
2022-08-07T20:57:28.166Z,21.69
2022-08-07T21:00:06.702Z,21.65
2022-08-07T21:02:34.207Z,21.64
2022-08-07T21:04:48.242Z,21.73
2022-08-07T21:07:14.545Z,21.77
2022-08-07T21:09:53.143Z,21.71
2022-08-07T21:12:15.133Z,21.65
2022-08-07T21:14:48.395Z,21.61
2022-08-07T21:18:03.164Z,21.67
2022-08-07T21:20:00.788Z,21.72
2022-08-07T21:22:19.256Z,21.69
2022-08-07T21:24:38.606Z,21.63
2022-08-07T21:26:59.626Z,21.54
2022-08-07T21:29:21.283Z,21.49
2022-08-07T21:32:10.823Z,21.51
2022-08-07T21:34:32.018Z,21.48
2022-08-07T21:36:53.945Z,21.51
2022-08-07T21:39:47.373Z,21.56
2022-08-07T21:42:01.460Z,21.51
2022-08-07T21:44:28.226Z,21.47
2022-08-07T21:46:50.845Z,21.47
2022-08-07T21:49:15.117Z,21.36
2022-08-07T21:51:51.062Z,21.37
2022-08-07T21:54:18.832Z,21.35
2022-08-07T21:56:47.089Z,21.37
2022-08-07T21:59:07.677Z,21.44
2022-08-07T22:02:11.266Z,21.51
2022-08-07T22:04:11.046Z,21.53
2022-08-07T22:06:31.226Z,21.57
2022-08-07T22:08:53.456Z,21.62
2022-08-07T22:11:09.526Z,21.65
2022-08-07T22:13:52.165Z,21.68
2022-08-07T22:16:42.993Z,21.73
2022-08-07T22:18:42.113Z,21.74
2022-08-07T22:20:58.138Z,21.76
2022-08-07T22:23:23.185Z,21.81
2022-08-07T22:25:45.123Z,21.77
2022-08-07T22:28:29.881Z,21.57
2022-08-07T22:30:52.992Z,21.53
2022-08-07T22:33:15.457Z,21.55
2022-08-07T22:35:39.565Z,21.58
2022-08-07T22:40:36.554Z,21.28
2022-08-07T22:42:53.188Z,21.32
2022-08-07T22:45:10.933Z,21.42
2022-08-07T22:48:02.193Z,21.42
2022-08-07T22:50:39.594Z,21.41
2022-08-07T22:54:05.620Z,21.46
2022-08-07T22:56:04.014Z,21.51
2022-08-07T22:59:05.213Z,21.53
2022-08-07T23:01:49.710Z,21.67
2022-08-07T23:04:18.981Z,21.68
2022-08-07T23:06:56.851Z,21.74
2022-08-07T23:10:05.147Z,21.86
2022-08-07T23:12:04.118Z,21.84
2022-08-07T23:14:36.879Z,21.83
2022-08-07T23:17:15.524Z,21.84
2022-08-07T23:19:57.871Z,22.00
2022-08-07T23:22:26.255Z,21.99
2022-08-07T23:24:51.207Z,21.80
2022-08-07T23:27:33.512Z,21.57
2022-08-07T23:30:37.064Z,21.39
2022-08-07T23:34:35.551Z,21.39
2022-08-07T23:35:41.239Z,21.45
2022-08-07T23:38:37.017Z,21.43
2022-08-07T23:41:06.212Z,21.40
2022-08-07T23:43:56.688Z,21.30
2022-08-07T23:46:30.962Z,21.15
2022-08-07T23:49:15.401Z,20.96
2022-08-07T23:53:02.036Z,20.91
2022-08-07T23:54:11.681Z,20.89
2022-08-07T23:56:41.745Z,20.82
